Rawlins, WY

3:25 PM MDT on August 23, 2016 (GMT -0600)
Highland Towne | | Change Station
Active Advisory: Fire Weather Warning

Elev 6831 ft 41.82 °N, 107.22 °W | Updated 9 minutes ago

Clear
Clear
80.8 °F
Feels Like 79 °F
N
10.9
Wind Variable Wind from North

Today
High -- | Low -- °F
--% Chance of Precip.
Yesterday
High -- | Low -- °F
Precip. -- in
Pressure 29.84 in
Visibility 10.0 miles
Clouds Clear
Heat Index 79 °F
Dew Point 27 °F
Humidity 14%
Rainfall 0.00 in
Snow Depth Not available.
6:26 AM 7:55 PM
Waning Gibbous, 64% visible
METAR KRWL 232053Z AUTO 27022G30KT 10SM CLR 27/M09 A3015 RMK AO2 PK WND 29030/2053 SLP103 T02721094 58009
Pressure 29.84 in
Visibility 10.0 miles
Clouds Clear
Heat Index 79 °F
Dew Point 27 °F
Humidity 14%
Rainfall 0.00 in
Snow Depth Not available.
6:26 AM 7:55 PM
Waning Gibbous, 64% visible
METAR KRWL 232053Z AUTO 27022G30KT 10SM CLR 27/M09 A3015 RMK AO2 PK WND 29030/2053 SLP103 T02721094 58009

10-Day Weather Forecast

Almanac

Astronomy

Aug. 23, 2016 Rise Set
Actual Time
Civil Twilight
Nautical Twilight
Astronomical Twilight
Moon
Length of Visible Light
Length of Day
Tomorrow will be .
, % of the Moon is Illuminated

Today's Extremes

State Highs State Lows

Community

WunderPhotos

Upload Photos

1,934,464 photos uploaded!

WunderBlog® & News

Nearby

Air Quality

  Air Quality AQ Index Pollutant
Not available.

Snow Depth

Station Depth Elevation

Earthquake Activity

City Distance Mag. Time & Date
Minimum magnitude displayed is 2.5.

Coastal Water Temperatures

Place Temperature

Stations

Nearby Weather Stations

Station Location Temp. Windchill Dew Point Humidity Wind Precip. Elev Updated Type
                   

Watches & Warnings

Fire Weather Warning
Issued: 3:08 PM MDT Aug. 23, 2016 – National Weather Service

... Red flag warning remains in effect until 8 PM MDT this evening
for gusty winds and low humidities for fire weather zones
302... 303... 304... 306... 308... 309 and 310...

* affected area... fire weather zone 302. Fire weather zone 303.
Fire weather zone 304. Fire weather zone 306. Fire weather
zone 308. Fire weather zone 309. Fire weather zone 310.

* Wind... sustained southwest 15 to 20 mph with gusts 25 to 35
mph.

* Humidity... minimum 8 to 15 percent.

* Impacts... the combination of warm temperatures and gusty
winds will create conditions favorable for rapid fire spread.
Outdoor burning is not recommended.

Precautionary/preparedness actions...

A red flag warning means that critical fire weather conditions
are either occurring now... .or will shortly. A combination of
strong winds... low relative humidity... and warm temperatures can
contribute to extreme fire behavior.